Terminal Aerodrome Forecast
Issued by NWS Memphis, TN

Home | Current Version | Previous Version | Text Only | Print | Product List | Glossary On
Versions: 1 2 3 4 5 6 7 8 9 10 11 12 13 14 15 16 17 18
000
FTUS44 KMEG 030526
TAFJBR
TAF
KJBR 030526Z 0306/0406 04005KT P6SM SKC
     FM031000 03003KT 6SM BR SKC
      TEMPO 0310/0313 3SM BR
     FM031300 08004KT P6SM SKC
     FM040000 VRB03KT P6SM BKN250=

USA.gov is the U.S. government's official web portal to all federal, state and local government web resources and services.